Time;durP1;ratioP1;P1;durP2;ratioP2;P2;SDS_P1;SDS_P2;PMS_P1;PMS_P2;Temp;Humidity;BMP_temperature;BMP_pressure;BME280_temperature;BME280_humidity;BME280_pressure;Samples;Min_cycle;Max_cycle;Signal;HPM_P1;HPM_P2
2022/09/19 00:00:37;;;;;;;8.90;4.47;;;;;;;;;;5068169;28;20033;-73
2022/09/19 00:03:03;;;;;;;7.30;2.60;;;;;;;;;;5067599;28;20029;-73
2022/09/19 00:05:28;;;;;;;4.95;2.38;;;;;;;;;;5067530;28;20143;-72
2022/09/19 00:07:53;;;;;;;2.35;1.98;;;;;;;;;;5067772;28;20029;-74
2022/09/19 00:10:19;;;;;;;2.70;2.28;;;;;;;;;;5067436;28;20032;-72
2022/09/19 00:12:44;;;;;;;4.95;3.38;;;;;;;;;;5067561;28;20432;-72
2022/09/19 00:15:09;;;;;;;7.60;3.30;;;;;;;;;;5067712;28;20071;-72
2022/09/19 00:17:35;;;;;;;8.82;3.85;;;;;;;;;;5066042;28;20033;-72
2022/09/19 00:20:00;;;;;;;5.60;3.97;;;;;;;;;;5067005;28;20036;-72
2022/09/19 00:22:26;;;;;;;4.75;2.35;;;;;;;;;;5067535;28;20023;-72
2022/09/19 00:24:51;;;;;;;6.35;3.40;;;;;;;;;;5067198;28;20047;-73
2022/09/19 00:27:19;;;;;;;8.48;4.65;;;;;;;;;;5066846;28;20104;-72
2022/09/19 00:29:44;;;;;;;7.57;4.78;;;;;;;;;;5066863;28;20025;-76
2022/09/19 00:32:12;;;;;;;8.25;4.60;;;;;;;;;;5067444;28;20365;-75
2022/09/19 00:34:39;;;;;;;8.15;4.93;;;;;;;;;;5066957;28;20052;-74
2022/09/19 00:37:05;;;;;;;8.25;5.35;;;;;;;;;;5067594;28;20026;-73
2022/09/19 00:39:30;;;;;;;6.80;4.38;;;;;;;;;;5067009;28;20041;-75
2022/09/19 00:41:56;;;;;;;6.60;3.60;;;;;;;;;;5066912;28;20027;-72
2022/09/19 00:44:21;;;;;;;3.17;2.45;;;;;;;;;;5066810;28;20052;-73
2022/09/19 00:46:49;;;;;;;4.47;2.60;;;;;;;;;;5066298;28;20020;-74
2022/09/19 00:49:14;;;;;;;4.00;2.70;;;;;;;;;;5066684;28;20024;-73
2022/09/19 00:51:46;;;;;;;4.28;3.03;;;;;;;;;;5066739;28;20027;-72
2022/09/19 00:54:13;;;;;;;2.75;2.30;;;;;;;;;;5066725;28;20343;-74
2022/09/19 00:56:42;;;;;;;3.70;2.20;;;;;;;;;;5066697;28;20028;-74
2022/09/19 00:59:08;;;;;;;3.40;2.30;;;;;;;;;;5066258;28;20340;-72
2022/09/19 01:01:34;;;;;;;9.23;5.07;;;;;;;;;;5066323;28;20021;-75
2022/09/19 01:04:01;;;;;;;8.82;4.05;;;;;;;;;;5066948;28;20047;-74
2022/09/19 01:06:45;;;;;;;6.85;3.75;;;;;;;;;;5066186;28;20024;-74
2022/09/19 01:09:17;;;;;;;5.43;3.35;;;;;;;;;;5066421;28;20035;-73
2022/09/19 01:11:42;;;;;;;9.65;6.13;;;;;;;;;;5066728;28;20028;-71
2022/09/19 01:14:17;;;;;;;10.52;6.43;;;;;;;;;;5066557;28;20024;-72
2022/09/19 01:16:47;;;;;;;9.57;6.05;;;;;;;;;;5066493;28;20472;-77
2022/09/19 01:19:23;;;;;;;9.18;4.72;;;;;;;;;;5066114;28;20111;-79
2022/09/19 01:22:06;;;;;;;9.02;5.10;;;;;;;;;;5066417;28;20021;-73
2022/09/19 01:24:51;;;;;;;10.65;5.22;;;;;;;;;;5066273;28;20104;-71
2022/09/19 01:27:25;;;;;;;8.48;4.75;;;;;;;;;;5066183;28;20511;-72
2022/09/19 01:29:50;;;;;;;8.25;4.50;;;;;;;;;;5065736;28;20035;-74
2022/09/19 01:32:21;;;;;;;17.67;6.90;;;;;;;;;;5066036;28;20024;-74
2022/09/19 01:34:50;;;;;;;24.60;10.13;;;;;;;;;;5066432;28;20020;-74
2022/09/19 01:37:18;;;;;;;25.17;11.20;;;;;;;;;;5066301;28;20020;-78
2022/09/19 01:39:48;;;;;;;20.05;9.10;;;;;;;;;;5065816;28;20108;-72
2022/09/19 01:42:15;;;;;;;21.30;10.55;;;;;;;;;;5065924;28;20012;-75
2022/09/19 01:44:40;;;;;;;19.10;9.05;;;;;;;;;;5065729;28;20436;-74
2022/09/19 01:47:26;;;;;;;17.63;8.30;;;;;;;;;;5065998;28;20099;-71
2022/09/19 01:49:56;;;;;;;19.85;10.40;;;;;;;;;;5064869;28;20044;-71
2022/09/19 01:52:21;;;;;;;;;;;;;;;;;;5066767;28;20023;-72
2022/09/19 01:54:46;;;;;;;18.95;9.00;;;;;;;;;;5066002;28;19908;-72
2022/09/19 01:57:21;;;;;;;11.63;6.80;;;;;;;;;;5065580;28;20104;-72
2022/09/19 01:59:52;;;;;;;12.10;5.25;;;;;;;;;;5066045;28;20112;-74
2022/09/19 02:02:24;;;;;;;11.80;5.72;;;;;;;;;;5066083;28;20420;-72
2022/09/19 02:04:56;;;;;;;6.72;3.58;;;;;;;;;;5065528;28;20032;-79
2022/09/19 02:07:24;;;;;;;8.70;3.22;;;;;;;;;;5065703;28;20017;-71
2022/09/19 02:10:00;;;;;;;8.98;4.50;;;;;;;;;;5066076;28;20056;-73
2022/09/19 02:12:26;;;;;;;16.15;7.70;;;;;;;;;;5065758;28;20016;-72
2022/09/19 02:14:55;;;;;;;10.55;5.90;;;;;;;;;;5065848;28;20020;-71
2022/09/19 02:17:34;;;;;;;14.63;7.32;;;;;;;;;;5065445;28;20688;-72
2022/09/19 02:20:07;;;;;;;5.28;3.22;;;;;;;;;;5067917;28;20067;-79
2022/09/19 02:22:35;;;;;;;5.78;3.67;;;;;;;;;;5069181;28;20029;-76
2022/09/19 02:25:05;;;;;;;5.13;3.60;;;;;;;;;;5069077;28;20025;-71
2022/09/19 02:27:34;;;;;;;5.07;3.72;;;;;;;;;;5069432;28;20031;-71
2022/09/19 02:30:05;;;;;;;9.20;3.90;;;;;;;;;;5068844;28;20040;-82
2022/09/19 02:32:31;;;;;;;6.70;4.43;;;;;;;;;;5069105;28;20033;-72
2022/09/19 02:34:56;;;;;;;7.25;4.30;;;;;;;;;;5069709;28;20020;-72
2022/09/19 02:37:32;;;;;;;6.32;3.90;;;;;;;;;;5068785;28;20074;-77
2022/09/19 02:40:04;;;;;;;5.15;4.13;;;;;;;;;;5068300;28;20371;-71
2022/09/19 02:42:35;;;;;;;7.32;3.83;;;;;;;;;;5068905;28;20032;-79
2022/09/19 02:45:04;;;;;;;4.57;2.92;;;;;;;;;;5068803;28;20045;-79
2022/09/19 02:47:33;;;;;;;3.63;2.47;;;;;;;;;;5068960;28;20641;-78
2022/09/19 02:50:08;;;;;;;3.92;2.20;;;;;;;;;;5069489;28;20085;-72
2022/09/19 02:52:34;;;;;;;2.30;2.10;;;;;;;;;;5068756;28;20493;-74
2022/09/19 02:55:26;;;;;;;3.60;1.92;;;;;;;;;;5068352;28;20082;-75
2022/09/19 02:57:53;;;;;;;2.20;1.77;;;;;;;;;;5065500;28;20051;-71
2022/09/19 03:00:21;;;;;;;2.63;1.63;;;;;;;;;;5068467;28;20039;-73
2022/09/19 03:04:11;;;;;;;3.00;2.05;;;;;;;;;;5069120;28;20036;-72
2022/09/19 03:05:53;;;;;;;2.25;1.92;;;;;;;;;;5068044;28;20578;-73
2022/09/19 03:08:24;;;;;;;3.17;2.30;;;;;;;;;;5068425;28;20082;-71
2022/09/19 03:10:51;;;;;;;2.58;2.08;;;;;;;;;;5068252;28;20024;-72
2022/09/19 03:13:18;;;;;;;2.63;1.98;;;;;;;;;;5068393;28;20325;-79
2022/09/19 03:15:51;;;;;;;3.83;2.10;;;;;;;;;;5068363;28;20024;-72
2022/09/19 03:18:17;;;;;;;3.47;2.10;;;;;;;;;;5068454;28;20024;-72
2022/09/19 03:20:46;;;;;;;3.60;2.10;;;;;;;;;;5068727;28;20038;-71
2022/09/19 03:23:13;;;;;;;2.13;1.95;;;;;;;;;;5068566;28;20028;-73
2022/09/19 03:25:39;;;;;;;3.33;2.25;;;;;;;;;;5068346;28;20032;-72
2022/09/19 03:28:05;;;;;;;2.45;1.90;;;;;;;;;;5067575;28;20029;-79
2022/09/19 03:30:31;;;;;;;2.92;2.28;;;;;;;;;;5067927;28;20029;-77
2022/09/19 03:32:56;;;;;;;3.03;2.22;;;;;;;;;;5067444;28;20036;-75
2022/09/19 03:35:22;;;;;;;2.60;2.17;;;;;;;;;;5068398;28;20028;-71
2022/09/19 03:37:47;;;;;;;3.13;2.40;;;;;;;;;;5068410;28;20028;-71
2022/09/19 03:40:13;;;;;;;3.42;2.22;;;;;;;;;;5067956;28;20036;-72
2022/09/19 03:42:38;;;;;;;4.72;2.28;;;;;;;;;;5067729;28;20077;-71
2022/09/19 03:45:04;;;;;;;2.63;2.30;;;;;;;;;;5067993;28;20448;-72
2022/09/19 03:47:30;;;;;;;2.50;2.30;;;;;;;;;;5067899;28;20033;-72
2022/09/19 03:49:55;;;;;;;6.75;2.55;;;;;;;;;;5067475;28;20032;-79
2022/09/19 03:52:21;;;;;;;3.08;2.45;;;;;;;;;;5067538;28;20017;-75
2022/09/19 03:54:46;;;;;;;2.85;2.40;;;;;;;;;;5068121;28;20099;-73
2022/09/19 03:57:12;;;;;;;2.65;2.45;;;;;;;;;;5067371;28;20017;-80
2022/09/19 03:59:41;;;;;;;2.70;2.47;;;;;;;;;;5068075;28;20032;-72
2022/09/19 04:02:07;;;;;;;3.30;2.30;;;;;;;;;;5067448;28;20399;-79
2022/09/19 04:04:32;;;;;;;2.47;2.25;;;;;;;;;;5067536;28;20028;-74
2022/09/19 04:06:58;;;;;;;3.85;2.03;;;;;;;;;;5067449;28;20021;-76
2022/09/19 04:09:25;;;;;;;3.15;2.25;;;;;;;;;;5067491;28;20560;-71
2022/09/19 04:11:51;;;;;;;3.88;2.22;;;;;;;;;;5067730;28;20059;-72
2022/09/19 04:14:17;;;;;;;2.33;1.85;;;;;;;;;;5067396;28;20060;-71
2022/09/19 04:16:42;;;;;;;2.67;2.13;;;;;;;;;;5067063;28;20048;-79
2022/09/19 04:19:09;;;;;;;3.78;2.20;;;;;;;;;;5066937;28;20032;-78
2022/09/19 04:21:35;;;;;;;4.25;2.45;;;;;;;;;;5067436;28;20441;-71
2022/09/19 04:24:00;;;;;;;2.72;2.53;;;;;;;;;;5066833;28;20066;-73
2022/09/19 04:26:26;;;;;;;9.85;8.13;;;;;;;;;;5066996;28;20420;-73
2022/09/19 04:28:51;;;;;;;5.70;5.10;;;;;;;;;;5067215;28;20032;-74
2022/09/19 04:31:17;;;;;;;39.45;28.88;;;;;;;;;;5067153;28;20028;-72
2022/09/19 04:33:42;;;;;;;15.45;11.75;;;;;;;;;;5066639;28;20017;-74
2022/09/19 04:36:08;;;;;;;33.42;21.90;;;;;;;;;;5067043;28;20447;-80
2022/09/19 04:38:34;;;;;;;331.50;179.43;;;;;;;;;;5066698;28;20024;-76
2022/09/19 04:41:00;;;;;;;398.20;236.30;;;;;;;;;;5066770;28;20037;-80
2022/09/19 04:43:26;;;;;;;262.40;150.05;;;;;;;;;;5066492;28;20035;-80
2022/09/19 04:45:54;;;;;;;42.85;26.40;;;;;;;;;;5066708;28;20093;-73
2022/09/19 04:48:20;;;;;;;15.57;9.70;;;;;;;;;;5066517;28;20043;-76
2022/09/19 04:50:50;;;;;;;18.95;14.40;;;;;;;;;;5066368;28;20032;-74
2022/09/19 04:53:16;;;;;;;24.75;16.55;;;;;;;;;;5066699;28;20024;-79
2022/09/19 04:55:42;;;;;;;20.55;13.30;;;;;;;;;;5082342;28;20093;-74
2022/09/19 04:58:08;;;;;;;44.97;29.92;;;;;;;;;;5066878;28;20443;-76
2022/09/19 05:00:39;;;;;;;35.65;24.27;;;;;;;;;;5066378;28;20091;-73
2022/09/19 05:03:07;;;;;;;23.58;16.15;;;;;;;;;;5066526;28;20028;-73
2022/09/19 05:05:33;;;;;;;14.63;10.52;;;;;;;;;;5066596;28;20055;-75
2022/09/19 05:07:59;;;;;;;51.30;38.38;;;;;;;;;;5066807;28;20021;-73
2022/09/19 05:10:25;;;;;;;57.20;50.97;;;;;;;;;;5066591;28;20097;-74
2022/09/19 05:12:51;;;;;;;40.67;36.50;;;;;;;;;;5065959;28;20663;-73
2022/09/19 05:15:16;;;;;;;38.53;34.45;;;;;;;;;;5065878;28;20081;-73
2022/09/19 05:17:42;;;;;;;9.43;8.48;;;;;;;;;;5066055;28;20464;-74
2022/09/19 05:20:07;;;;;;;12.27;11.05;;;;;;;;;;5066210;28;20545;-72
2022/09/19 05:22:33;;;;;;;6.38;5.60;;;;;;;;;;5066060;28;20044;-73
2022/09/19 05:25:02;;;;;;;6.25;5.55;;;;;;;;;;5066160;28;20024;-75
2022/09/19 05:27:31;;;;;;;4.00;3.67;;;;;;;;;;5066297;28;20443;-74
2022/09/19 05:29:58;;;;;;;3.83;3.33;;;;;;;;;;5066057;28;20490;-74
2022/09/19 05:32:24;;;;;;;4.70;4.13;;;;;;;;;;5066145;28;20066;-72
2022/09/19 05:34:49;;;;;;;3.55;3.05;;;;;;;;;;5066202;28;20410;-73
2022/09/19 05:37:14;;;;;;;4.43;4.03;;;;;;;;;;5066044;28;20115;-79
2022/09/19 05:39:40;;;;;;;4.63;3.28;;;;;;;;;;5065632;28;20039;-79
2022/09/19 05:42:05;;;;;;;4.32;3.25;;;;;;;;;;5065910;28;20031;-75
2022/09/19 05:44:31;;;;;;;9.65;6.18;;;;;;;;;;5065827;28;20105;-74
2022/09/19 05:46:57;;;;;;;5.30;3.58;;;;;;;;;;5066119;28;20032;-74
2022/09/19 05:49:22;;;;;;;5.22;2.88;;;;;;;;;;5065700;28;20032;-73
2022/09/19 05:51:47;;;;;;;3.03;2.40;;;;;;;;;;5065479;28;20028;-73
2022/09/19 05:54:13;;;;;;;4.18;3.10;;;;;;;;;;5069178;28;20035;-73
2022/09/19 05:56:38;;;;;;;2.30;2.10;;;;;;;;;;5069306;28;20063;-72
2022/09/19 05:59:03;;;;;;;2.30;2.10;;;;;;;;;;5069870;28;20428;-72
2022/09/19 06:01:29;;;;;;;2.67;2.20;;;;;;;;;;5070076;28;20032;-73
2022/09/19 06:03:54;;;;;;;3.42;2.25;;;;;;;;;;5069727;28;20028;-71
2022/09/19 06:06:19;;;;;;;2.75;2.17;;;;;;;;;;5069834;28;20028;-76
2022/09/19 06:08:46;;;;;;;2.72;2.35;;;;;;;;;;5069965;28;20020;-74
2022/09/19 06:11:12;;;;;;;4.22;2.17;;;;;;;;;;5069523;28;20020;-73
2022/09/19 06:16:21;;;;;;;2.78;2.58;;;;;;;;;;5069244;28;20035;-73
2022/09/19 06:18:47;;;;;;;3.85;2.70;;;;;;;;;;5069584;28;20028;-72
2022/09/19 06:21:13;;;;;;;2.30;2.10;;;;;;;;;;5069291;28;20047;-75
2022/09/19 06:23:39;;;;;;;2.45;2.25;;;;;;;;;;5068946;28;20020;-76
2022/09/19 06:26:05;;;;;;;2.08;1.85;;;;;;;;;;5069588;28;20459;-78
2022/09/19 06:28:30;;;;;;;3.80;1.90;;;;;;;;;;5069032;28;20120;-73
2022/09/19 06:31:00;;;;;;;5.35;2.30;;;;;;;;;;5069007;28;20024;-73
2022/09/19 06:33:26;;;;;;;;;;;;;;;;;;5070024;28;20028;-74
2022/09/19 06:35:55;;;;;;;4.00;2.50;;;;;;;;;;5068892;28;19908;-73
2022/09/19 06:38:20;;;;;;;4.38;2.40;;;;;;;;;;5068824;28;20480;-71
2022/09/19 06:40:46;;;;;;;7.70;3.90;;;;;;;;;;5068779;28;20107;-79
2022/09/19 06:43:11;;;;;;;7.25;4.72;;;;;;;;;;5069132;28;20043;-72
2022/09/19 06:45:40;;;;;;;7.72;5.00;;;;;;;;;;5069005;28;20028;-78
2022/09/19 06:48:06;;;;;;;7.47;4.78;;;;;;;;;;5068957;28;20017;-80
2022/09/19 06:50:31;;;;;;;7.68;6.97;;;;;;;;;;5069137;28;20081;-71
2022/09/19 06:52:57;;;;;;;11.05;10.00;;;;;;;;;;5068967;28;20070;-80
2022/09/19 06:55:24;;;;;;;11.73;10.38;;;;;;;;;;5068867;28;20024;-73
2022/09/19 06:57:58;;;;;;;10.52;9.55;;;;;;;;;;5068713;28;20021;-72
2022/09/19 07:00:24;;;;;;;16.98;12.30;;;;;;;;;;5068534;28;20116;-80
2022/09/19 07:02:58;;;;;;;17.25;12.90;;;;;;;;;;5068749;28;20446;-72
2022/09/19 07:05:23;;;;;;;10.13;8.35;;;;;;;;;;5067825;28;20383;-72
2022/09/19 07:07:51;;;;;;;9.85;5.80;;;;;;;;;;5068089;28;20021;-72
2022/09/19 07:10:17;;;;;;;4.47;3.10;;;;;;;;;;5068815;28;20024;-74
2022/09/19 07:12:42;;;;;;;17.15;12.68;;;;;;;;;;5068401;28;20025;-74
2022/09/19 07:15:07;;;;;;;16.75;12.02;;;;;;;;;;5068412;28;20031;-76
2022/09/19 07:17:33;;;;;;;23.92;16.75;;;;;;;;;;5068566;28;20029;-72
2022/09/19 07:20:00;;;;;;;5.43;3.88;;;;;;;;;;5068296;28;20478;-72
2022/09/19 07:22:25;;;;;;;25.63;14.35;;;;;;;;;;5068667;28;20016;-71
2022/09/19 07:24:50;;;;;;;18.85;12.90;;;;;;;;;;5068224;28;20036;-80
2022/09/19 07:27:16;;;;;;;6.82;5.50;;;;;;;;;;5067944;28;20035;-76
2022/09/19 07:29:41;;;;;;;10.98;7.38;;;;;;;;;;5068105;28;20462;-74
2022/09/19 07:32:09;;;;;;;8.68;5.82;;;;;;;;;;5068162;28;20091;-74
2022/09/19 07:34:35;;;;;;;15.52;13.60;;;;;;;;;;5068004;28;20025;-73
2022/09/19 07:37:00;;;;;;;6.97;4.63;;;;;;;;;;5068510;28;20359;-78
2022/09/19 07:39:26;;;;;;;4.25;3.85;;;;;;;;;;5068117;28;20439;-76
2022/09/19 07:41:51;;;;;;;1.63;1.50;;;;;;;;;;5068013;28;20340;-74
2022/09/19 07:44:16;;;;;;;3.10;2.50;;;;;;;;;;5068286;28;20139;-72
2022/09/19 07:47:26;;;;;;;5.60;3.67;;;;;;;;;;5068364;28;20025;-72
2022/09/19 07:49:27;;;;;;;9.57;7.78;;;;;;;;;;5067488;28;20143;-75
2022/09/19 07:51:52;;;;;;;7.35;6.18;;;;;;;;;;5068020;28;20111;-72
2022/09/19 07:54:17;;;;;;;14.43;12.07;;;;;;;;;;5067661;28;20020;-74
2022/09/19 07:56:43;;;;;;;9.52;7.25;;;;;;;;;;5067869;28;20024;-72
2022/09/19 07:59:08;;;;;;;8.52;7.55;;;;;;;;;;5067334;28;20078;-73
2022/09/19 08:01:34;;;;;;;4.15;3.35;;;;;;;;;;5067894;28;20395;-75
2022/09/19 08:04:00;;;;;;;9.00;7.10;;;;;;;;;;5067823;28;20024;-73
2022/09/19 08:06:26;;;;;;;5.28;2.85;;;;;;;;;;5067212;28;20020;-77
2022/09/19 08:08:52;;;;;;;1.65;1.20;;;;;;;;;;5067089;28;20111;-72
2022/09/19 08:11:19;;;;;;;1.83;1.10;;;;;;;;;;5067567;28;20108;-72
2022/09/19 08:13:45;;;;;;;13.43;8.30;;;;;;;;;;5067177;28;20024;-72
2022/09/19 08:16:10;;;;;;;14.77;10.75;;;;;;;;;;5067280;28;20102;-72
2022/09/19 08:18:36;;;;;;;5.70;3.97;;;;;;;;;;5066767;28;20043;-73
2022/09/19 08:21:01;;;;;;;18.17;12.93;;;;;;;;;;5067224;28;20094;-74
2022/09/19 08:23:29;;;;;;;8.65;5.70;;;;;;;;;;5066906;28;20462;-72
2022/09/19 08:25:55;;;;;;;3.38;2.30;;;;;;;;;;5067488;28;20027;-71
2022/09/19 08:28:21;;;;;;;1.75;1.17;;;;;;;;;;5066958;28;20423;-77
2022/09/19 08:30:47;;;;;;;4.75;3.95;;;;;;;;;;5067279;28;20028;-73
2022/09/19 08:33:13;;;;;;;7.47;5.68;;;;;;;;;;5066739;28;20103;-76
2022/09/19 08:35:40;;;;;;;6.43;4.50;;;;;;;;;;5066618;28;20111;-73
2022/09/19 08:38:07;;;;;;;2.85;2.35;;;;;;;;;;5067000;28;20032;-74
2022/09/19 08:40:44;;;;;;;4.53;3.17;;;;;;;;;;5067087;28;20359;-75
2022/09/19 08:43:14;;;;;;;3.63;2.60;;;;;;;;;;5066893;28;20032;-75
2022/09/19 08:45:52;;;;;;;3.40;2.80;;;;;;;;;;5026974;28;20045;-76
2022/09/19 08:48:24;;;;;;;5.35;4.70;;;;;;;;;;5026879;28;20017;-74
2022/09/19 08:50:55;;;;;;;17.52;14.20;;;;;;;;;;5026703;28;20029;-76
2022/09/19 08:53:26;;;;;;;3.03;2.35;;;;;;;;;;5026819;28;20038;-73
2022/09/19 08:55:53;;;;;;;15.18;10.10;;;;;;;;;;5026799;28;20028;-72
2022/09/19 08:58:20;;;;;;;5.80;3.67;;;;;;;;;;5026759;28;20099;-72
2022/09/19 09:00:46;;;;;;;3.15;1.60;;;;;;;;;;5027178;28;20029;-73
2022/09/19 09:03:18;;;;;;;2.25;2.03;;;;;;;;;;5026697;28;20147;-74
2022/09/19 09:06:04;;;;;;;2.97;1.25;;;;;;;;;;5026572;28;20025;-72
2022/09/19 09:08:46;;;;;;;1.65;1.23;;;;;;;;;;5026969;28;20104;-74
2022/09/19 09:11:15;;;;;;;3.35;1.45;;;;;;;;;;5026862;28;20071;-72
2022/09/19 09:13:43;;;;;;;5.25;2.55;;;;;;;;;;5025944;28;20099;-73
2022/09/19 09:16:19;;;;;;;1.83;1.20;;;;;;;;;;5026475;28;20337;-73
2022/09/19 09:19:00;;;;;;;10.70;2.25;;;;;;;;;;5026012;28;20088;-77
2022/09/19 09:21:31;;;;;;;1.35;0.85;;;;;;;;;;5026012;28;20044;-76
2022/09/19 09:24:11;;;;;;;1.05;0.80;;;;;;;;;;5026414;28;20040;-78
2022/09/19 09:26:40;;;;;;;1.45;0.90;;;;;;;;;;5026441;28;20126;-73
2022/09/19 09:29:11;;;;;;;4.43;1.50;;;;;;;;;;5025975;28;20037;-75
2022/09/19 09:31:46;;;;;;;3.08;2.80;;;;;;;;;;5026092;28;20022;-75
2022/09/19 09:34:22;;;;;;;5.30;2.30;;;;;;;;;;5026193;28;20028;-75
2022/09/19 09:37:08;;;;;;;2.95;1.55;;;;;;;;;;5026561;28;20025;-75
2022/09/19 09:39:49;;;;;;;1.80;1.05;;;;;;;;;;5025080;28;20041;-74
2022/09/19 09:42:17;;;;;;;1.10;1.00;;;;;;;;;;5026392;28;20029;-75
2022/09/19 09:45:00;;;;;;;2.45;1.63;;;;;;;;;;5050686;28;20055;-75
2022/09/19 09:47:39;;;;;;;5.68;4.95;;;;;;;;;;5065789;28;20056;-74
2022/09/19 09:50:34;;;;;;;2.60;1.50;;;;;;;;;;5066016;28;20435;-75
2022/09/19 09:53:03;;;;;;;5.25;4.05;;;;;;;;;;5066139;28;20125;-78
2022/09/19 09:58:50;;;;;;;3.22;2.60;;;;;;;;;;5065387;28;20055;-73
2022/09/19 10:04:24;;;;;;;2.15;1.40;;;;;;;;;;5065232;28;20174;-75
2022/09/19 10:07:13;;;;;;;2.67;1.50;;;;;;;;;;5065789;28;20040;-73
2022/09/19 10:10:00;;;;;;;1.40;1.30;;;;;;;;;;5059257;28;20380;-73
2022/09/19 10:12:50;;;;;;;2.13;1.90;;;;;;;;;;5066135;28;20114;-76
2022/09/19 10:15:20;;;;;;;3.72;1.80;;;;;;;;;;5065465;28;20021;-76
2022/09/19 10:17:58;;;;;;;2.05;1.70;;;;;;;;;;5065750;28;20115;-75
2022/09/19 10:20:30;;;;;;;2.20;1.60;;;;;;;;;;5065463;28;20033;-76
2022/09/19 10:22:56;;;;;;;7.63;3.40;;;;;;;;;;5065397;28;20044;-75
2022/09/19 10:25:22;;;;;;;3.35;2.65;;;;;;;;;;5065665;28;20056;-74
2022/09/19 10:27:49;;;;;;;4.07;3.67;;;;;;;;;;5065351;28;20460;-74
2022/09/19 10:30:24;;;;;;;2.50;2.20;;;;;;;;;;5065235;28;20025;-76
2022/09/19 10:32:50;;;;;;;3.95;3.65;;;;;;;;;;5065405;28;20028;-75
2022/09/19 10:35:25;;;;;;;2.20;1.45;;;;;;;;;;5065534;28;20450;-80
2022/09/19 10:38:13;;;;;;;2.90;1.48;;;;;;;;;;5065432;28;20447;-74
2022/09/19 10:40:59;;;;;;;1.33;0.77;;;;;;;;;;5067167;28;20029;-73
2022/09/19 10:43:31;;;;;;;1.35;0.90;;;;;;;;;;5068097;28;20037;-76
2022/09/19 10:45:57;;;;;;;2.63;1.60;;;;;;;;;;5069390;28;20028;-75
2022/09/19 10:48:30;;;;;;;3.17;1.00;;;;;;;;;;5069304;28;20351;-74
2022/09/19 10:50:57;;;;;;;2.58;0.93;;;;;;;;;;5068196;28;20406;-74
2022/09/19 10:53:27;;;;;;;2.15;0.93;;;;;;;;;;5069340;28;20031;-75
2022/09/19 10:55:53;;;;;;;3.58;1.85;;;;;;;;;;5068706;28;20086;-75
2022/09/19 10:58:26;;;;;;;1.50;1.00;;;;;;;;;;5068303;28;20428;-77
2022/09/19 11:01:04;;;;;;;2.40;0.90;;;;;;;;;;5068749;28;20557;-75
2022/09/19 11:03:35;;;;;;;2.38;0.82;;;;;;;;;;5069004;28;20021;-73
2022/09/19 11:06:10;;;;;;;2.67;1.42;;;;;;;;;;5068715;28;20037;-74
2022/09/19 11:08:52;;;;;;;2.08;1.10;;;;;;;;;;5069059;28;20020;-73
2022/09/19 11:11:20;;;;;;;2.42;1.50;;;;;;;;;;5068568;28;20056;-75
2022/09/19 11:13:50;;;;;;;8.02;5.47;;;;;;;;;;5069011;28;20039;-74
2022/09/19 11:16:38;;;;;;;21.75;12.15;;;;;;;;;;5068271;28;20020;-75
2022/09/19 11:19:06;;;;;;;21.67;14.15;;;;;;;;;;5068623;28;20048;-75
2022/09/19 11:21:32;;;;;;;10.33;5.80;;;;;;;;;;5068367;28;20032;-73
2022/09/19 11:24:03;;;;;;;12.70;8.50;;;;;;;;;;5068724;28;20035;-75
2022/09/19 11:26:47;;;;;;;6.72;4.93;;;;;;;;;;5068295;28;20029;-74
2022/09/19 11:29:33;;;;;;;1.40;1.30;;;;;;;;;;5068135;28;20025;-75
2022/09/19 11:32:14;;;;;;;2.60;2.40;;;;;;;;;;5067960;28;20051;-74
2022/09/19 11:34:54;;;;;;;1.23;0.70;;;;;;;;;;5068399;28;20032;-75
2022/09/19 11:37:26;;;;;;;11.77;10.20;;;;;;;;;;5068383;28;20040;-75
2022/09/19 11:39:51;;;;;;;68.15;59.25;;;;;;;;;;5068224;28;20042;-76
2022/09/19 11:42:35;;;;;;;1.30;1.20;;;;;;;;;;5068396;28;20032;-74
2022/09/19 11:45:19;;;;;;;2.42;0.82;;;;;;;;;;5067673;28;20052;-76
2022/09/19 11:47:50;;;;;;;0.70;0.60;;;;;;;;;;5067165;28;20417;-74
2022/09/19 11:50:20;;;;;;;1.50;0.80;;;;;;;;;;5067498;28;20499;-77
2022/09/19 11:52:47;;;;;;;0.95;0.70;;;;;;;;;;5067892;28;20444;-78
2022/09/19 11:55:31;;;;;;;2.38;1.00;;;;;;;;;;5067616;28;20094;-77
2022/09/19 11:57:56;;;;;;;2.47;2.10;;;;;;;;;;5067533;28;20034;-73
2022/09/19 12:00:25;;;;;;;1.80;0.85;;;;;;;;;;5066724;28;20131;-73
2022/09/19 12:03:14;;;;;;;0.73;0.50;;;;;;;;;;5067862;28;20035;-76
2022/09/19 12:05:53;;;;;;;3.42;1.40;;;;;;;;;;5048310;28;20032;-74
2022/09/19 12:08:28;;;;;;;2.97;2.05;;;;;;;;;;5067078;28;20039;-74
2022/09/19 12:11:05;;;;;;;3.08;2.47;;;;;;;;;;5066963;28;20435;-77
2022/09/19 12:13:42;;;;;;;0.80;0.68;;;;;;;;;;5067756;28;20054;-75
2022/09/19 12:16:10;;;;;;;1.10;0.60;;;;;;;;;;5067017;28;20558;-77
2022/09/19 12:18:42;;;;;;;1.23;1.10;;;;;;;;;;5067465;28;20450;-74
2022/09/19 12:21:09;;;;;;;1.65;0.88;;;;;;;;;;5067452;28;20032;-75
2022/09/19 12:26:47;;;;;;;0.98;0.80;;;;;;;;;;5067038;28;20035;-75
2022/09/19 12:29:18;;;;;;;1.40;0.85;;;;;;;;;;5066845;28;20044;-74
2022/09/19 12:31:47;;;;;;;1.98;0.85;;;;;;;;;;5067169;28;20039;-74
2022/09/19 12:34:21;;;;;;;3.30;1.00;;;;;;;;;;5066987;28;20191;-74
2022/09/19 12:36:46;;;;;;;1.35;0.82;;;;;;;;;;5067235;28;20024;-74
2022/09/19 12:39:14;;;;;;;1.58;1.10;;;;;;;;;;5067110;28;20020;-74
2022/09/19 12:41:48;;;;;;;4.15;2.35;;;;;;;;;;5066922;28;20027;-75
2022/09/19 12:44:23;;;;;;;1.83;1.70;;;;;;;;;;5066411;28;20460;-73
2022/09/19 12:46:58;;;;;;;4.15;3.05;;;;;;;;;;5066584;28;20028;-76
2022/09/19 12:49:50;;;;;;;3.58;2.35;;;;;;;;;;5066999;28;20025;-75
2022/09/19 12:52:26;;;;;;;4.95;2.50;;;;;;;;;;5066957;28;20024;-76
2022/09/19 12:55:03;;;;;;;3.65;2.33;;;;;;;;;;5067275;28;20032;-74
2022/09/19 12:57:40;;;;;;;3.47;1.30;;;;;;;;;;5066880;28;20032;-77
2022/09/19 13:00:08;;;;;;;2.13;1.23;;;;;;;;;;5066138;28;20367;-77
2022/09/19 13:02:44;;;;;;;4.88;2.17;;;;;;;;;;5065926;28;20020;-74
2022/09/19 13:05:29;;;;;;;2.60;1.90;;;;;;;;;;5066323;28;20028;-75
2022/09/19 13:08:02;;;;;;;2.45;1.25;;;;;;;;;;5066492;28;20386;-73
2022/09/19 13:10:27;;;;;;;1.92;1.10;;;;;;;;;;5066240;28;20043;-73
2022/09/19 13:13:18;;;;;;;1.80;0.90;;;;;;;;;;5066453;28;20032;-73
2022/09/19 13:15:55;;;;;;;1.30;1.00;;;;;;;;;;5064002;28;20040;-74
2022/09/19 13:24:00;;;;;;;3.42;1.77;;;;;;;;;;5066453;28;20074;-75
2022/09/19 13:26:32;;;;;;;1.48;1.25;;;;;;;;;;5066497;28;20024;-74
2022/09/19 13:28:58;;;;;;;5.65;1.60;;;;;;;;;;5066440;28;20103;-73
2022/09/19 13:31:25;;;;;;;3.17;1.45;;;;;;;;;;5064497;28;20078;-75
2022/09/19 13:33:52;;;;;;;1.85;1.45;;;;;;;;;;5066099;28;20094;-74
2022/09/19 13:36:23;;;;;;;2.97;1.23;;;;;;;;;;5066400;28;20027;-73
2022/09/19 13:38:50;;;;;;;1.70;1.10;;;;;;;;;;5066289;28;20020;-74
2022/09/19 13:41:18;;;;;;;1.85;1.20;;;;;;;;;;5066126;28;20115;-74
2022/09/19 13:43:44;;;;;;;1.42;1.10;;;;;;;;;;5065805;28;20048;-74
2022/09/19 13:46:28;;;;;;;1.35;1.02;;;;;;;;;;5065810;28;20439;-75
2022/09/19 13:48:54;;;;;;;3.20;1.10;;;;;;;;;;5066031;28;20020;-76
2022/09/19 13:51:19;;;;;;;2.40;1.02;;;;;;;;;;5066283;28;20110;-76
2022/09/19 13:53:45;;;;;;;1.17;0.80;;;;;;;;;;5065359;28;20020;-74
2022/09/19 13:56:24;;;;;;;1.30;0.90;;;;;;;;;;5065980;28;20081;-74
2022/09/19 13:59:07;;;;;;;2.15;1.08;;;;;;;;;;5065958;28;20039;-75
2022/09/19 14:01:36;;;;;;;1.52;1.10;;;;;;;;;;5065994;28;20358;-74
2022/09/19 14:04:52;;;;;;;1.52;1.23;;;;;;;;;;5065627;28;20017;-74
2022/09/19 14:07:00;;;;;;;1.80;1.48;;;;;;;;;;5065753;28;20114;-73
2022/09/19 14:09:40;;;;;;;1.85;1.42;;;;;;;;;;5066242;28;20090;-75
2022/09/19 14:12:24;;;;;;;2.70;1.75;;;;;;;;;;5065365;28;20462;-72
2022/09/19 14:14:50;;;;;;;5.35;2.17;;;;;;;;;;5068131;28;20072;-75
2022/09/19 14:17:18;;;;;;;2.05;1.70;;;;;;;;;;5069405;28;20470;-74
2022/09/19 14:19:52;;;;;;;5.43;1.90;;;;;;;;;;5069613;28;20450;-76
2022/09/19 14:22:37;;;;;;;1.95;1.55;;;;;;;;;;5069723;28;20577;-74
2022/09/19 14:25:04;;;;;;;3.22;1.98;;;;;;;;;;5069936;28;20025;-77
2022/09/19 14:27:30;;;;;;;6.20;2.00;;;;;;;;;;5069665;28;20521;-74
2022/09/19 14:29:56;;;;;;;6.50;3.25;;;;;;;;;;5069683;28;20070;-73
2022/09/19 14:32:27;;;;;;;2.50;2.05;;;;;;;;;;5069296;28;20028;-75
2022/09/19 14:34:54;;;;;;;6.47;4.60;;;;;;;;;;5068756;28;20355;-73
2022/09/19 14:37:46;;;;;;;4.82;2.85;;;;;;;;;;5069411;28;20021;-75
2022/09/19 14:40:20;;;;;;;2.17;1.67;;;;;;;;;;5068878;28;20470;-73
2022/09/19 14:43:04;;;;;;;3.05;1.50;;;;;;;;;;5069061;28;20107;-75
2022/09/19 14:45:37;;;;;;;2.22;1.27;;;;;;;;;;5069251;28;20135;-74
2022/09/19 14:48:28;;;;;;;5.93;2.40;;;;;;;;;;5069481;28;20097;-74
2022/09/19 14:50:56;;;;;;;3.13;1.60;;;;;;;;;;5048912;28;20101;-73
2022/09/19 14:53:25;;;;;;;5.25;3.13;;;;;;;;;;5068216;28;20106;-72
2022/09/19 14:55:52;;;;;;;3.22;1.90;;;;;;;;;;5068543;28;20111;-76
2022/09/19 14:58:24;;;;;;;3.13;1.80;;;;;;;;;;5068354;28;20035;-73
2022/09/19 15:01:05;;;;;;;4.25;1.90;;;;;;;;;;5069054;28;20431;-72
2022/09/19 15:03:40;;;;;;;2.50;1.90;;;;;;;;;;5069025;28;20025;-75
2022/09/19 15:06:27;;;;;;;2.40;1.40;;;;;;;;;;5068910;28;20035;-74
2022/09/19 15:08:53;;;;;;;1.63;1.30;;;;;;;;;;5067725;28;20339;-74
2022/09/19 15:11:19;;;;;;;1.50;1.40;;;;;;;;;;5067834;28;20035;-76
2022/09/19 15:13:45;;;;;;;3.58;2.55;;;;;;;;;;5069092;28;20028;-74
2022/09/19 15:16:10;;;;;;;5.80;4.05;;;;;;;;;;5084017;28;20043;-77